createdAt,value
2022-08-22T00:01:29.346Z,100.00
2022-08-22T00:02:56.170Z,98.84
2022-08-22T00:02:57.071Z,94.28
2022-08-22T00:03:04.494Z,98.46
2022-08-22T00:04:37.736Z,100.00
2022-08-22T00:07:16.576Z,100.00
2022-08-22T00:09:52.873Z,100.00
2022-08-22T00:12:33.279Z,99.89
2022-08-22T00:15:42.323Z,99.64
2022-08-22T00:18:30.173Z,99.01
2022-08-22T00:21:18.603Z,98.02
2022-08-22T00:24:28.803Z,98.44
2022-08-22T00:27:04.114Z,100.00
2022-08-22T00:29:54.988Z,100.00
2022-08-22T00:32:25.543Z,100.00
2022-08-22T00:35:00.125Z,99.34
2022-08-22T00:38:05.581Z,99.93
2022-08-22T00:40:35.766Z,100.00
2022-08-22T00:43:18.709Z,100.00
2022-08-22T00:46:07.984Z,99.95
2022-08-22T00:49:00.377Z,99.82
2022-08-22T00:51:43.289Z,98.77
2022-08-22T00:55:00.989Z,97.69
2022-08-22T00:58:01.925Z,97.88
2022-08-22T01:00:42.352Z,99.71
2022-08-22T01:03:38.146Z,99.48
2022-08-22T01:06:12.221Z,99.66
2022-08-22T01:08:48.508Z,98.97
2022-08-22T01:11:35.361Z,97.14
2022-08-22T01:14:34.380Z,96.63
2022-08-22T01:17:15.360Z,96.09
2022-08-22T01:19:46.272Z,97.41
2022-08-22T01:22:39.299Z,98.06
2022-08-22T01:25:44.274Z,98.13
2022-08-22T01:29:04.759Z,97.79
2022-08-22T01:32:26.659Z,98.27
2022-08-22T01:35:34.815Z,97.69
2022-08-22T01:38:57.221Z,98.64
2022-08-22T01:41:29.103Z,98.53
2022-08-22T01:44:08.651Z,98.92
2022-08-22T01:46:51.330Z,99.41
2022-08-22T01:49:35.004Z,99.41
2022-08-22T01:52:19.833Z,99.34
2022-08-22T01:55:01.881Z,99.50
2022-08-22T01:57:29.943Z,99.44
2022-08-22T02:00:01.172Z,98.99
2022-08-22T02:02:41.229Z,98.96
2022-08-22T02:05:31.620Z,98.36
2022-08-22T02:08:19.330Z,98.22
2022-08-22T02:11:09.848Z,99.04
2022-08-22T02:14:00.464Z,99.46
2022-08-22T02:16:46.245Z,99.39
2022-08-22T02:19:15.011Z,100.00
2022-08-22T02:22:13.282Z,100.00
2022-08-22T02:24:47.926Z,99.43
2022-08-22T02:27:51.534Z,99.78
2022-08-22T02:30:22.277Z,99.65
2022-08-22T02:33:10.313Z,99.05
2022-08-22T02:35:47.161Z,99.74
2022-08-22T02:38:24.255Z,99.31
2022-08-22T02:41:10.870Z,98.91
2022-08-22T02:43:55.202Z,99.50
2022-08-22T02:46:41.604Z,99.08
2022-08-22T02:49:23.501Z,98.81
2022-08-22T02:51:54.987Z,98.42
2022-08-22T02:54:48.005Z,97.98
2022-08-22T02:57:31.259Z,97.54
2022-08-22T03:00:32.828Z,97.70
2022-08-22T03:03:23.797Z,98.01
2022-08-22T03:06:05.998Z,97.64
2022-08-22T03:08:38.919Z,98.00
2022-08-22T03:11:26.767Z,98.05
2022-08-22T03:14:12.640Z,96.86
2022-08-22T03:16:49.939Z,97.74
2022-08-22T03:19:48.707Z,98.76
2022-08-22T03:22:22.940Z,99.20
2022-08-22T03:25:44.734Z,100.00
2022-08-22T03:28:21.708Z,100.00
2022-08-22T03:30:57.377Z,100.00
2022-08-22T03:33:28.335Z,99.92
2022-08-22T03:36:22.519Z,99.99
2022-08-22T03:39:17.200Z,100.00
2022-08-22T03:41:48.041Z,100.00
2022-08-22T03:44:56.680Z,100.00
2022-08-22T03:47:55.034Z,99.54
2022-08-22T03:50:39.497Z,99.39
2022-08-22T03:53:19.465Z,99.47
2022-08-22T03:56:16.493Z,99.08
2022-08-22T03:59:09.945Z,98.63
2022-08-22T04:01:56.271Z,98.74
2022-08-22T04:04:57.004Z,98.65
2022-08-22T04:07:46.213Z,98.90
2022-08-22T04:10:50.067Z,99.10
2022-08-22T04:13:39.973Z,99.59
2022-08-22T04:16:51.819Z,99.80
2022-08-22T04:20:16.661Z,99.59
2022-08-22T04:22:59.414Z,100.00
2022-08-22T04:28:54.169Z,99.32
2022-08-22T04:31:35.902Z,99.35
2022-08-22T04:34:14.473Z,99.35
2022-08-22T04:36:50.851Z,98.74
2022-08-22T04:39:30.671Z,99.24
2022-08-22T04:42:31.175Z,98.71
2022-08-22T04:45:35.244Z,98.30
2022-08-22T04:48:29.764Z,98.25
2022-08-22T04:51:23.834Z,98.78
2022-08-22T04:54:17.911Z,99.00
2022-08-22T04:57:30.225Z,98.71
2022-08-22T05:00:18.320Z,98.88
2022-08-22T05:03:12.415Z,98.27
2022-08-22T05:06:01.712Z,97.71
2022-08-22T05:08:53.805Z,96.88
2022-08-22T05:11:42.820Z,98.43
2022-08-22T05:14:40.361Z,97.86
2022-08-22T05:17:29.495Z,97.05
2022-08-22T05:20:19.919Z,98.00
2022-08-22T05:23:17.907Z,98.28
2022-08-22T05:26:06.538Z,95.76
2022-08-22T05:28:59.995Z,95.14
2022-08-22T05:31:51.860Z,96.03
2022-08-22T05:34:41.835Z,95.00
2022-08-22T05:37:44.295Z,94.92
2022-08-22T05:40:33.766Z,95.45
2022-08-22T05:43:25.916Z,95.96
2022-08-22T05:46:27.155Z,94.64
2022-08-22T05:49:19.095Z,93.75
2022-08-22T05:52:24.912Z,93.73
2022-08-22T05:55:36.653Z,94.30
2022-08-22T05:58:39.761Z,95.02
2022-08-22T06:01:34.749Z,93.45
2022-08-22T06:04:34.770Z,94.22
2022-08-22T06:07:27.619Z,93.98
2022-08-22T06:10:24.856Z,93.21
2022-08-22T06:13:23.567Z,92.53
2022-08-22T06:16:38.841Z,90.99
2022-08-22T06:19:37.030Z,90.91
2022-08-22T06:22:29.481Z,92.32
2022-08-22T06:25:33.169Z,91.73
2022-08-22T06:28:24.951Z,91.37
2022-08-22T06:31:23.593Z,90.04
2022-08-22T06:34:17.973Z,89.87
2022-08-22T06:37:08.484Z,89.57
2022-08-22T06:39:56.901Z,89.04
2022-08-22T06:42:48.128Z,90.01
2022-08-22T06:45:36.086Z,89.57
2022-08-22T06:48:23.902Z,89.29
2022-08-22T06:51:12.427Z,87.46
2022-08-22T06:54:03.952Z,87.25
2022-08-22T06:56:52.834Z,87.52
2022-08-22T06:59:41.176Z,88.03
2022-08-22T07:02:35.988Z,87.65
2022-08-22T07:05:27.197Z,87.30
2022-08-22T07:08:18.716Z,88.61
2022-08-22T07:11:28.849Z,87.96
2022-08-22T07:14:18.242Z,87.08
2022-08-22T07:17:06.873Z,85.77
2022-08-22T07:20:23.271Z,85.89
2022-08-22T07:23:13.289Z,86.13
2022-08-22T07:26:26.492Z,83.75
2022-08-22T07:29:14.018Z,84.94
2022-08-22T07:32:32.805Z,85.09
2022-08-22T07:35:21.737Z,84.58
2022-08-22T07:38:42.335Z,84.54
2022-08-22T07:41:51.192Z,84.71
2022-08-22T07:44:58.176Z,85.16
2022-08-22T07:47:51.657Z,84.67
2022-08-22T07:51:06.067Z,84.38
2022-08-22T07:54:07.042Z,84.83
2022-08-22T07:57:31.746Z,84.73
2022-08-22T08:00:21.226Z,83.00
2022-08-22T08:03:09.464Z,82.51
2022-08-22T08:05:57.598Z,80.90
2022-08-22T08:08:45.652Z,82.14
2022-08-22T08:11:39.592Z,81.18
2022-08-22T08:14:27.959Z,80.13
2022-08-22T08:17:34.433Z,81.44
2022-08-22T08:20:24.394Z,81.80
2022-08-22T08:23:12.987Z,80.76
2022-08-22T08:26:19.539Z,80.00
2022-08-22T08:29:07.278Z,78.74
2022-08-22T08:31:55.523Z,79.22
2022-08-22T08:34:43.652Z,77.69
2022-08-22T08:37:38.947Z,77.83
2022-08-22T08:40:32.552Z,76.72
2022-08-22T08:43:22.519Z,76.39
2022-08-22T08:46:16.890Z,77.10
2022-08-22T08:49:11.099Z,75.86
2022-08-22T08:52:20.410Z,76.86
2022-08-22T08:55:51.374Z,77.51
2022-08-22T08:58:47.516Z,75.86
2022-08-22T09:01:57.441Z,76.00
2022-08-22T09:05:03.192Z,76.44
2022-08-22T09:08:04.568Z,75.21
2022-08-22T09:11:02.422Z,75.22
2022-08-22T09:14:02.842Z,76.79
2022-08-22T09:17:10.732Z,76.97
2022-08-22T09:20:29.910Z,77.20
2022-08-22T09:23:32.225Z,77.95
2022-08-22T09:26:38.372Z,78.97
2022-08-22T09:29:30.516Z,79.57
2022-08-22T09:32:43.445Z,80.80
2022-08-22T09:35:36.573Z,81.74
2022-08-22T09:38:47.765Z,81.76
2022-08-22T09:41:41.451Z,81.61
2022-08-22T09:44:57.569Z,82.12
2022-08-22T09:48:07.354Z,81.85
2022-08-22T09:51:28.621Z,82.03
2022-08-22T09:54:32.718Z,78.81
2022-08-22T09:57:22.638Z,77.60
2022-08-22T10:00:17.822Z,77.41
2022-08-22T10:03:16.096Z,78.73
2022-08-22T10:06:11.410Z,77.15
2022-08-22T10:09:09.104Z,76.37
2022-08-22T10:12:05.526Z,74.86
2022-08-22T10:15:21.711Z,74.36
2022-08-22T10:18:36.477Z,73.67
2022-08-22T10:22:11.920Z,71.44
2022-08-22T10:28:43.339Z,69.80
2022-08-22T10:31:59.519Z,69.80
2022-08-22T10:34:49.667Z,71.05
2022-08-22T10:37:46.120Z,66.83
2022-08-22T10:40:51.274Z,66.69
2022-08-22T10:43:46.173Z,66.01
2022-08-22T10:47:01.047Z,66.10
2022-08-22T10:49:51.837Z,66.56
2022-08-22T10:52:46.512Z,66.77
2022-08-22T10:55:37.643Z,65.21
2022-08-22T10:58:28.459Z,64.96
2022-08-22T11:01:37.926Z,65.39
2022-08-22T11:04:40.855Z,65.74
2022-08-22T11:07:28.688Z,64.79
2022-08-22T11:10:44.990Z,61.93
2022-08-22T11:14:00.333Z,61.44
2022-08-22T11:17:27.545Z,60.41
2022-08-22T11:20:24.328Z,62.07
2022-08-22T11:23:27.974Z,60.61
2022-08-22T11:26:47.321Z,59.83
2022-08-22T11:29:47.998Z,59.94
2022-08-22T11:32:44.009Z,57.99
2022-08-22T11:35:36.408Z,58.80
2022-08-22T11:38:37.887Z,60.22
2022-08-22T11:41:28.336Z,60.29
2022-08-22T11:44:20.996Z,59.63
2022-08-22T11:47:11.823Z,61.05
2022-08-22T11:50:13.646Z,60.66
2022-08-22T11:53:21.799Z,62.47
2022-08-22T11:56:26.235Z,62.12
2022-08-22T11:59:22.460Z,61.57
2022-08-22T12:02:21.892Z,61.24
2022-08-22T12:05:17.937Z,58.42
2022-08-22T12:08:14.177Z,58.71
2022-08-22T12:11:14.142Z,57.68
2022-08-22T12:14:06.618Z,57.55
2022-08-22T12:17:50.607Z,58.09
2022-08-22T12:21:13.479Z,58.85
2022-08-22T12:24:32.340Z,59.18
2022-08-22T12:27:28.961Z,60.46
2022-08-22T12:30:46.098Z,60.78
2022-08-22T12:33:48.734Z,62.64
2022-08-22T12:36:59.634Z,63.99
2022-08-22T12:40:22.285Z,63.97
2022-08-22T12:43:33.432Z,63.40
2022-08-22T12:46:33.233Z,64.20
2022-08-22T12:49:31.676Z,63.49
2022-08-22T12:52:37.594Z,64.76
2022-08-22T12:55:31.313Z,64.86
2022-08-22T12:58:51.339Z,65.44
2022-08-22T13:01:45.005Z,65.75
2022-08-22T13:04:34.359Z,66.40
2022-08-22T13:07:24.137Z,67.23
2022-08-22T13:10:14.401Z,68.51
2022-08-22T13:18:54.176Z,68.28
2022-08-22T13:22:04.339Z,69.39
2022-08-22T13:24:58.409Z,69.89
2022-08-22T13:27:50.676Z,70.17
2022-08-22T13:30:41.333Z,68.81
2022-08-22T13:33:34.197Z,68.16
2022-08-22T13:36:22.916Z,67.12
2022-08-22T13:39:14.304Z,67.42
2022-08-22T13:42:14.209Z,68.94
2022-08-22T13:45:05.380Z,71.05
2022-08-22T13:48:03.788Z,72.69
2022-08-22T13:51:16.639Z,73.33
2022-08-22T13:54:11.031Z,75.63
2022-08-22T13:57:15.957Z,76.93
2022-08-22T14:00:11.069Z,76.50
2022-08-22T14:03:09.615Z,78.33
2022-08-22T14:06:06.225Z,78.87
2022-08-22T14:09:42.334Z,79.37
2022-08-22T14:12:50.096Z,81.40
2022-08-22T14:15:44.961Z,80.23
2022-08-22T14:18:37.055Z,80.78
2022-08-22T14:21:48.119Z,79.88
2022-08-22T14:24:45.544Z,80.99
2022-08-22T14:27:37.225Z,80.40
2022-08-22T14:30:36.587Z,80.66
2022-08-22T14:33:39.866Z,82.84
2022-08-22T14:37:11.332Z,82.37
2022-08-22T14:40:10.789Z,82.63
2022-08-22T14:43:31.894Z,82.12
2022-08-22T14:46:29.869Z,81.81
2022-08-22T14:49:25.770Z,81.60
2022-08-22T14:52:38.405Z,80.69
2022-08-22T14:55:28.270Z,80.36
2022-08-22T14:58:26.523Z,78.49
2022-08-22T15:01:19.095Z,77.06
2022-08-22T15:04:11.644Z,77.27
2022-08-22T15:07:00.179Z,77.42
2022-08-22T15:10:23.240Z,78.39
2022-08-22T15:13:10.876Z,76.93
2022-08-22T15:16:05.699Z,76.44
2022-08-22T15:18:55.724Z,75.80
2022-08-22T15:21:45.271Z,76.42
2022-08-22T15:24:32.922Z,77.34
2022-08-22T15:27:21.174Z,77.96
2022-08-22T15:30:18.599Z,76.34
2022-08-22T15:33:43.471Z,76.58
2022-08-22T15:36:31.246Z,77.43
2022-08-22T15:39:28.365Z,79.25
2022-08-22T15:42:25.127Z,80.67
2022-08-22T15:45:28.937Z,80.92
2022-08-22T15:48:33.205Z,80.74
2022-08-22T15:51:52.712Z,80.88
2022-08-22T15:54:51.060Z,80.22
2022-08-22T15:57:40.498Z,80.69
2022-08-22T16:00:33.870Z,81.36
2022-08-22T16:03:30.795Z,82.26
2022-08-22T16:06:42.554Z,83.24
2022-08-22T16:09:42.715Z,81.95
2022-08-22T16:12:31.889Z,81.74
2022-08-22T16:15:52.841Z,82.04
2022-08-22T16:18:41.762Z,81.41
2022-08-22T16:21:29.495Z,81.00
2022-08-22T16:24:16.902Z,79.60
2022-08-22T16:27:22.856Z,81.02
2022-08-22T16:30:14.689Z,79.94
2022-08-22T16:33:03.019Z,79.27
2022-08-22T16:36:32.427Z,78.20
2022-08-22T16:39:58.586Z,76.46
2022-08-22T16:42:53.297Z,76.52
2022-08-22T16:45:43.250Z,77.24
2022-08-22T16:48:34.587Z,76.74
2022-08-22T16:51:22.442Z,76.48
2022-08-22T16:54:13.173Z,76.06
2022-08-22T16:57:23.845Z,77.29
2022-08-22T17:00:22.296Z,76.67
2022-08-22T17:03:26.598Z,77.82
2022-08-22T17:06:40.311Z,78.01
2022-08-22T17:09:56.733Z,78.43
2022-08-22T17:12:54.505Z,78.87
2022-08-22T17:15:55.291Z,79.68
2022-08-22T17:18:45.947Z,80.88
2022-08-22T17:21:53.953Z,82.44
2022-08-22T17:25:03.733Z,82.10
2022-08-22T17:28:02.468Z,83.13
2022-08-22T17:31:12.972Z,83.16
2022-08-22T17:34:18.437Z,83.61
2022-08-22T17:37:51.346Z,84.00
2022-08-22T17:40:55.781Z,84.13
2022-08-22T17:44:01.443Z,85.27
2022-08-22T17:46:57.523Z,85.36
2022-08-22T17:49:54.807Z,85.21
2022-08-22T17:52:50.961Z,83.99
2022-08-22T17:55:53.691Z,82.87
2022-08-22T17:59:09.860Z,82.43
2022-08-22T18:02:15.928Z,79.61
2022-08-22T18:05:21.592Z,78.99
2022-08-22T18:09:13.275Z,79.25
2022-08-22T18:11:43.300Z,80.42
2022-08-22T18:14:36.421Z,81.37
2022-08-22T18:17:35.521Z,82.42
2022-08-22T18:20:33.497Z,83.32
2022-08-22T18:23:40.556Z,84.73
2022-08-22T18:26:31.299Z,85.03
2022-08-22T18:29:26.591Z,85.87
2022-08-22T18:32:33.706Z,86.06
2022-08-22T18:35:27.118Z,86.16
2022-08-22T18:38:22.985Z,86.16
2022-08-22T18:41:15.455Z,87.61
2022-08-22T18:44:20.650Z,88.43
2022-08-22T18:47:16.138Z,88.61
2022-08-22T18:50:31.906Z,88.40
2022-08-22T18:53:36.374Z,87.62
2022-08-22T18:56:38.193Z,86.83
2022-08-22T18:59:43.336Z,86.57
2022-08-22T19:03:00.765Z,86.69
2022-08-22T19:06:24.126Z,86.45
2022-08-22T19:09:19.093Z,85.89
2022-08-22T19:12:36.521Z,85.02
2022-08-22T19:15:30.103Z,84.40
2022-08-22T19:18:29.345Z,83.92
2022-08-22T19:21:24.885Z,83.86
2022-08-22T19:24:36.896Z,83.79
2022-08-22T19:27:31.237Z,84.29
2022-08-22T19:30:43.439Z,84.05
2022-08-22T19:33:41.285Z,84.19
2022-08-22T19:36:32.321Z,83.88
2022-08-22T19:39:38.678Z,83.63
2022-08-22T19:42:32.399Z,84.38
2022-08-22T19:45:26.594Z,85.25
2022-08-22T19:48:14.730Z,85.35
2022-08-22T19:51:07.616Z,84.78
2022-08-22T19:54:16.377Z,85.31
2022-08-22T19:57:20.677Z,85.28
2022-08-22T20:00:19.715Z,85.36
2022-08-22T20:03:22.793Z,85.26
2022-08-22T20:06:44.341Z,85.00
2022-08-22T20:09:48.382Z,84.73
2022-08-22T20:12:41.131Z,86.13
2022-08-22T20:15:31.399Z,85.56
2022-08-22T20:19:05.080Z,86.23
2022-08-22T20:22:00.680Z,86.55
2022-08-22T20:24:53.897Z,85.57
2022-08-22T20:27:50.779Z,85.23
2022-08-22T20:30:42.532Z,85.29
2022-08-22T20:33:39.664Z,85.46
2022-08-22T20:36:28.664Z,85.25
2022-08-22T20:39:22.781Z,85.78
2022-08-22T20:42:14.077Z,87.20
2022-08-22T20:45:12.048Z,87.33
2022-08-22T20:48:00.500Z,89.01
2022-08-22T20:50:48.653Z,88.55
2022-08-22T20:53:36.431Z,87.91
2022-08-22T20:57:01.001Z,86.77
2022-08-22T20:59:58.960Z,86.75
2022-08-22T21:02:53.531Z,86.97
2022-08-22T21:05:44.317Z,86.79
2022-08-22T21:08:32.145Z,87.25
2022-08-22T21:11:22.753Z,87.85
2022-08-22T21:14:24.857Z,88.14
2022-08-22T21:17:25.620Z,87.86
2022-08-22T21:20:20.152Z,89.17
2022-08-22T21:23:12.755Z,90.04
2022-08-22T21:26:03.790Z,89.95
2022-08-22T21:29:01.387Z,90.21
2022-08-22T21:32:04.806Z,90.43
2022-08-22T21:34:53.186Z,90.87
2022-08-22T21:37:45.604Z,92.07
2022-08-22T21:40:35.645Z,92.67
2022-08-22T21:43:29.912Z,92.50
2022-08-22T21:46:25.336Z,92.46
2022-08-22T21:49:39.454Z,92.33
2022-08-22T21:52:28.800Z,91.38
2022-08-22T21:55:34.559Z,91.37
2022-08-22T21:58:36.941Z,91.47
2022-08-22T22:01:28.202Z,91.23
2022-08-22T22:04:16.396Z,91.56
2022-08-22T22:07:03.963Z,91.50
2022-08-22T22:09:54.932Z,92.02
2022-08-22T22:12:44.581Z,92.24
2022-08-22T22:15:45.034Z,91.89
2022-08-22T22:18:33.172Z,92.58
2022-08-22T22:21:21.676Z,92.20
2022-08-22T22:24:09.226Z,92.93
2022-08-22T22:26:57.533Z,93.91
2022-08-22T22:29:45.122Z,93.93
2022-08-22T22:32:33.080Z,93.75
2022-08-22T22:35:20.648Z,94.44
2022-08-22T22:38:08.819Z,95.51
2022-08-22T22:40:56.350Z,94.76
2022-08-22T22:43:44.229Z,95.57
2022-08-22T22:46:31.797Z,95.66
2022-08-22T22:49:19.737Z,96.20
2022-08-22T22:52:07.314Z,95.56
2022-08-22T22:54:59.480Z,95.49
2022-08-22T22:57:47.039Z,96.07
2022-08-22T23:00:35.679Z,95.18
2022-08-22T23:03:23.348Z,95.64
2022-08-22T23:06:12.743Z,96.78
2022-08-22T23:09:00.304Z,97.57
2022-08-22T23:11:48.144Z,97.29
2022-08-22T23:14:35.826Z,96.32
2022-08-22T23:17:23.670Z,95.28
2022-08-22T23:20:11.362Z,96.67
2022-08-22T23:22:59.326Z,97.16
2022-08-22T23:25:46.889Z,97.87
2022-08-22T23:28:34.844Z,97.80
2022-08-22T23:31:34.682Z,96.46
2022-08-22T23:34:25.334Z,96.22
2022-08-22T23:37:15.475Z,96.14
2022-08-22T23:40:04.629Z,96.34
2022-08-22T23:42:52.152Z,95.72
2022-08-22T23:45:40.009Z,95.29
2022-08-22T23:48:28.056Z,96.27
2022-08-22T23:51:23.055Z,95.47
2022-08-22T23:54:11.221Z,95.42
2022-08-22T23:57:01.082Z,95.39
2022-08-22T23:59:57.710Z,94.58
